sensor_id;sensor_type;location;lat;lon;timestamp;temperature;humidity
19622;DHT22;9958;33.196;-97.114;2023-04-25T00:00:04;20.70;68.10
19622;DHT22;9958;33.196;-97.114;2023-04-25T00:02:34;20.60;68.20
19622;DHT22;9958;33.196;-97.114;2023-04-25T00:05:02;20.50;69.00
19622;DHT22;9958;33.196;-97.114;2023-04-25T00:07:31;20.40;69.80
19622;DHT22;9958;33.196;-97.114;2023-04-25T00:10:00;20.40;70.10
19622;DHT22;9958;33.196;-97.114;2023-04-25T00:12:28;20.30;70.40
19622;DHT22;9958;33.196;-97.114;2023-04-25T00:14:58;20.30;71.00
19622;DHT22;9958;33.196;-97.114;2023-04-25T00:17:26;20.20;71.50
19622;DHT22;9958;33.196;-97.114;2023-04-25T00:19:55;20.20;71.80
19622;DHT22;9958;33.196;-97.114;2023-04-25T00:22:24;20.10;72.10
19622;DHT22;9958;33.196;-97.114;2023-04-25T00:24:52;20.00;72.70
19622;DHT22;9958;33.196;-97.114;2023-04-25T00:27:23;20.00;73.40
19622;DHT22;9958;33.196;-97.114;2023-04-25T00:29:51;19.90;73.30
19622;DHT22;9958;33.196;-97.114;2023-04-25T00:32:21;19.90;73.50
19622;DHT22;9958;33.196;-97.114;2023-04-25T00:34:50;19.90;74.40
19622;DHT22;9958;33.196;-97.114;2023-04-25T00:37:18;19.80;74.70
19622;DHT22;9958;33.196;-97.114;2023-04-25T00:39:46;19.80;75.00
19622;DHT22;9958;33.196;-97.114;2023-04-25T00:42:15;19.70;75.20
19622;DHT22;9958;33.196;-97.114;2023-04-25T00:44:44;19.60;75.90
19622;DHT22;9958;33.196;-97.114;2023-04-25T00:47:13;19.60;76.40
19622;DHT22;9958;33.196;-97.114;2023-04-25T00:49:44;19.50;76.50
19622;DHT22;9958;33.196;-97.114;2023-04-25T00:52:13;19.50;77.30
19622;DHT22;9958;33.196;-97.114;2023-04-25T00:54:41;19.50;77.60
19622;DHT22;9958;33.196;-97.114;2023-04-25T00:57:10;19.40;77.80
19622;DHT22;9958;33.196;-97.114;2023-04-25T00:59:38;19.40;78.40
19622;DHT22;9958;33.196;-97.114;2023-04-25T01:02:09;19.40;78.60
19622;DHT22;9958;33.196;-97.114;2023-04-25T01:04:38;19.40;78.70
19622;DHT22;9958;33.196;-97.114;2023-04-25T01:07:08;19.30;78.90
19622;DHT22;9958;33.196;-97.114;2023-04-25T01:09:37;19.30;79.10
19622;DHT22;9958;33.196;-97.114;2023-04-25T01:12:06;19.30;79.40
19622;DHT22;9958;33.196;-97.114;2023-04-25T01:14:34;19.20;79.70
19622;DHT22;9958;33.196;-97.114;2023-04-25T01:17:03;19.20;79.80
19622;DHT22;9958;33.196;-97.114;2023-04-25T01:19:31;19.20;80.40
19622;DHT22;9958;33.196;-97.114;2023-04-25T01:22:01;19.10;81.10
19622;DHT22;9958;33.196;-97.114;2023-04-25T01:24:30;19.10;82.60
19622;DHT22;9958;33.196;-97.114;2023-04-25T01:26:59;19.10;84.90
19622;DHT22;9958;33.196;-97.114;2023-04-25T01:29:28;19.10;88.30
19622;DHT22;9958;33.196;-97.114;2023-04-25T01:31:58;19.00;88.50
19622;DHT22;9958;33.196;-97.114;2023-04-25T01:34:27;18.90;89.90
19622;DHT22;9958;33.196;-97.114;2023-04-25T01:36:55;18.80;90.30
19622;DHT22;9958;33.196;-97.114;2023-04-25T01:39:25;18.70;90.90
19622;DHT22;9958;33.196;-97.114;2023-04-25T01:41:53;18.60;90.60
19622;DHT22;9958;33.196;-97.114;2023-04-25T01:44:22;18.50;90.90
19622;DHT22;9958;33.196;-97.114;2023-04-25T01:46:50;18.50;91.00
19622;DHT22;9958;33.196;-97.114;2023-04-25T01:49:19;18.40;90.80
19622;DHT22;9958;33.196;-97.114;2023-04-25T01:51:47;18.40;91.00
19622;DHT22;9958;33.196;-97.114;2023-04-25T01:54:16;18.30;91.30
19622;DHT22;9958;33.196;-97.114;2023-04-25T01:56:50;18.30;91.30
19622;DHT22;9958;33.196;-97.114;2023-04-25T01:59:19;18.20;91.60
19622;DHT22;9958;33.196;-97.114;2023-04-25T02:01:48;18.20;91.60
19622;DHT22;9958;33.196;-97.114;2023-04-25T02:04:16;18.10;91.60
19622;DHT22;9958;33.196;-97.114;2023-04-25T02:06:44;18.20;91.60
19622;DHT22;9958;33.196;-97.114;2023-04-25T02:09:13;18.20;91.50
19622;DHT22;9958;33.196;-97.114;2023-04-25T02:11:41;18.20;91.50
19622;DHT22;9958;33.196;-97.114;2023-04-25T02:14:11;18.20;91.50
19622;DHT22;9958;33.196;-97.114;2023-04-25T02:16:39;18.10;91.40
19622;DHT22;9958;33.196;-97.114;2023-04-25T02:19:10;18.20;91.30
19622;DHT22;9958;33.196;-97.114;2023-04-25T02:21:38;18.20;91.40
19622;DHT22;9958;33.196;-97.114;2023-04-25T02:24:07;18.20;91.80
19622;DHT22;9958;33.196;-97.114;2023-04-25T02:26:36;18.20;91.60
19622;DHT22;9958;33.196;-97.114;2023-04-25T02:29:04;18.10;91.60
19622;DHT22;9958;33.196;-97.114;2023-04-25T02:31:35;18.20;91.80
19622;DHT22;9958;33.196;-97.114;2023-04-25T02:34:03;18.10;91.90
19622;DHT22;9958;33.196;-97.114;2023-04-25T02:36:31;18.10;92.00
19622;DHT22;9958;33.196;-97.114;2023-04-25T02:39:00;18.10;91.80
19622;DHT22;9958;33.196;-97.114;2023-04-25T02:41:29;18.10;91.60
19622;DHT22;9958;33.196;-97.114;2023-04-25T02:43:57;18.10;91.70
19622;DHT22;9958;33.196;-97.114;2023-04-25T02:46:25;18.10;91.60
19622;DHT22;9958;33.196;-97.114;2023-04-25T02:48:55;18.10;91.60
19622;DHT22;9958;33.196;-97.114;2023-04-25T02:51:24;18.20;91.70
19622;DHT22;9958;33.196;-97.114;2023-04-25T02:53:52;18.10;91.70
19622;DHT22;9958;33.196;-97.114;2023-04-25T02:56:20;18.20;91.80
19622;DHT22;9958;33.196;-97.114;2023-04-25T02:58:49;18.20;91.90
19622;DHT22;9958;33.196;-97.114;2023-04-25T03:01:17;18.20;92.10
19622;DHT22;9958;33.196;-97.114;2023-04-25T03:03:45;18.20;92.10
19622;DHT22;9958;33.196;-97.114;2023-04-25T03:06:15;18.20;92.20
19622;DHT22;9958;33.196;-97.114;2023-04-25T03:08:44;18.20;92.40
19622;DHT22;9958;33.196;-97.114;2023-04-25T03:11:12;18.10;92.50
19622;DHT22;9958;33.196;-97.114;2023-04-25T03:13:40;18.10;92.60
19622;DHT22;9958;33.196;-97.114;2023-04-25T03:16:09;18.10;92.70
19622;DHT22;9958;33.196;-97.114;2023-04-25T03:18:37;18.10;92.70
19622;DHT22;9958;33.196;-97.114;2023-04-25T03:21:05;18.00;92.60
19622;DHT22;9958;33.196;-97.114;2023-04-25T03:23:35;18.10;92.80
19622;DHT22;9958;33.196;-97.114;2023-04-25T03:26:04;18.10;93.00
19622;DHT22;9958;33.196;-97.114;2023-04-25T03:28:32;18.00;92.90
19622;DHT22;9958;33.196;-97.114;2023-04-25T03:31:00;18.10;93.10
19622;DHT22;9958;33.196;-97.114;2023-04-25T03:33:29;18.00;93.20
19622;DHT22;9958;33.196;-97.114;2023-04-25T03:35:57;18.00;93.30
19622;DHT22;9958;33.196;-97.114;2023-04-25T03:38:25;18.00;93.60
19622;DHT22;9958;33.196;-97.114;2023-04-25T03:40:55;17.90;93.80
19622;DHT22;9958;33.196;-97.114;2023-04-25T03:43:24;17.90;93.90
19622;DHT22;9958;33.196;-97.114;2023-04-25T03:45:52;17.80;94.10
19622;DHT22;9958;33.196;-97.114;2023-04-25T03:48:20;17.70;94.20
19622;DHT22;9958;33.196;-97.114;2023-04-25T03:50:50;17.70;94.40
19622;DHT22;9958;33.196;-97.114;2023-04-25T03:53:19;17.60;94.60
19622;DHT22;9958;33.196;-97.114;2023-04-25T03:55:47;17.60;95.00
19622;DHT22;9958;33.196;-97.114;2023-04-25T03:58:17;17.50;95.10
19622;DHT22;9958;33.196;-97.114;2023-04-25T04:00:45;17.40;95.40
19622;DHT22;9958;33.196;-97.114;2023-04-25T04:03:14;17.40;95.50
19622;DHT22;9958;33.196;-97.114;2023-04-25T04:05:42;17.40;96.00
19622;DHT22;9958;33.196;-97.114;2023-04-25T04:08:11;17.40;95.90
19622;DHT22;9958;33.196;-97.114;2023-04-25T04:10:39;17.40;96.20
19622;DHT22;9958;33.196;-97.114;2023-04-25T04:13:08;17.40;96.20
19622;DHT22;9958;33.196;-97.114;2023-04-25T04:15:38;17.40;96.40
19622;DHT22;9958;33.196;-97.114;2023-04-25T04:18:06;17.50;96.50
19622;DHT22;9958;33.196;-97.114;2023-04-25T04:20:34;17.50;96.30
19622;DHT22;9958;33.196;-97.114;2023-04-25T04:23:03;17.50;96.60
19622;DHT22;9958;33.196;-97.114;2023-04-25T04:25:31;17.50;96.40
19622;DHT22;9958;33.196;-97.114;2023-04-25T04:28:00;17.50;96.60
19622;DHT22;9958;33.196;-97.114;2023-04-25T04:30:29;17.50;96.80
19622;DHT22;9958;33.196;-97.114;2023-04-25T04:32:59;17.60;96.80
19622;DHT22;9958;33.196;-97.114;2023-04-25T04:35:28;17.60;97.30
19622;DHT22;9958;33.196;-97.114;2023-04-25T04:37:56;17.60;97.20
19622;DHT22;9958;33.196;-97.114;2023-04-25T04:40:25;17.60;97.10
19622;DHT22;9958;33.196;-97.114;2023-04-25T04:42:53;17.60;97.20
19622;DHT22;9958;33.196;-97.114;2023-04-25T04:45:22;17.70;97.70
19622;DHT22;9958;33.196;-97.114;2023-04-25T04:47:51;17.70;97.80
19622;DHT22;9958;33.196;-97.114;2023-04-25T04:50:23;17.60;97.80
19622;DHT22;9958;33.196;-97.114;2023-04-25T04:52:51;17.60;97.80
19622;DHT22;9958;33.196;-97.114;2023-04-25T04:55:20;17.60;97.80
19622;DHT22;9958;33.196;-97.114;2023-04-25T04:57:49;17.60;97.90
19622;DHT22;9958;33.196;-97.114;2023-04-25T05:00:17;17.60;98.30
19622;DHT22;9958;33.196;-97.114;2023-04-25T05:02:47;17.60;98.50
19622;DHT22;9958;33.196;-97.114;2023-04-25T05:05:15;17.60;98.60
19622;DHT22;9958;33.196;-97.114;2023-04-25T05:07:45;17.60;98.80
19622;DHT22;9958;33.196;-97.114;2023-04-25T05:10:13;17.60;98.80
19622;DHT22;9958;33.196;-97.114;2023-04-25T05:12:41;17.60;99.00
19622;DHT22;9958;33.196;-97.114;2023-04-25T05:15:10;17.60;99.30
19622;DHT22;9958;33.196;-97.114;2023-04-25T05:17:38;17.60;99.40
19622;DHT22;9958;33.196;-97.114;2023-04-25T05:20:08;17.50;99.10
19622;DHT22;9958;33.196;-97.114;2023-04-25T05:22:37;17.50;99.20
19622;DHT22;9958;33.196;-97.114;2023-04-25T05:25:07;17.50;99.30
19622;DHT22;9958;33.196;-97.114;2023-04-25T05:27:36;17.60;99.30
19622;DHT22;9958;33.196;-97.114;2023-04-25T05:30:05;17.60;99.30
19622;DHT22;9958;33.196;-97.114;2023-04-25T05:32:34;17.50;99.10
19622;DHT22;9958;33.196;-97.114;2023-04-25T05:35:03;17.50;99.00
19622;DHT22;9958;33.196;-97.114;2023-04-25T05:37:33;17.60;99.00
19622;DHT22;9958;33.196;-97.114;2023-04-25T05:40:01;17.60;99.10
19622;DHT22;9958;33.196;-97.114;2023-04-25T05:42:34;17.60;99.00
19622;DHT22;9958;33.196;-97.114;2023-04-25T05:45:03;17.70;98.90
19622;DHT22;9958;33.196;-97.114;2023-04-25T05:47:31;17.70;99.10
19622;DHT22;9958;33.196;-97.114;2023-04-25T05:50:00;17.70;99.10
19622;DHT22;9958;33.196;-97.114;2023-04-25T05:52:28;17.70;99.10
19622;DHT22;9958;33.196;-97.114;2023-04-25T05:54:56;17.70;99.10
19622;DHT22;9958;33.196;-97.114;2023-04-25T05:57:25;17.70;99.20
19622;DHT22;9958;33.196;-97.114;2023-04-25T05:59:55;17.80;99.20
19622;DHT22;9958;33.196;-97.114;2023-04-25T06:02:23;17.70;99.20
19622;DHT22;9958;33.196;-97.114;2023-04-25T06:04:52;17.80;99.20
19622;DHT22;9958;33.196;-97.114;2023-04-25T06:07:21;17.70;99.30
19622;DHT22;9958;33.196;-97.114;2023-04-25T06:09:49;17.70;99.30
19622;DHT22;9958;33.196;-97.114;2023-04-25T06:12:17;17.80;99.40
19622;DHT22;9958;33.196;-97.114;2023-04-25T06:14:46;17.80;99.50
19622;DHT22;9958;33.196;-97.114;2023-04-25T06:17:16;17.80;99.60
19622;DHT22;9958;33.196;-97.114;2023-04-25T06:19:44;17.80;99.60
19622;DHT22;9958;33.196;-97.114;2023-04-25T06:22:12;17.80;99.90
19622;DHT22;9958;33.196;-97.114;2023-04-25T06:24:40;17.80;99.90
19622;DHT22;9958;33.196;-97.114;2023-04-25T06:27:09;17.80;99.90
19622;DHT22;9958;33.196;-97.114;2023-04-25T06:29:37;17.80;99.90
19622;DHT22;9958;33.196;-97.114;2023-04-25T06:32:06;17.80;99.80
19622;DHT22;9958;33.196;-97.114;2023-04-25T06:34:35;17.80;99.90
19622;DHT22;9958;33.196;-97.114;2023-04-25T06:37:04;17.80;99.90
19622;DHT22;9958;33.196;-97.114;2023-04-25T06:39:32;17.80;99.90
19622;DHT22;9958;33.196;-97.114;2023-04-25T06:42:01;17.80;99.90
19622;DHT22;9958;33.196;-97.114;2023-04-25T06:44:29;17.80;99.90
19622;DHT22;9958;33.196;-97.114;2023-04-25T06:46:57;17.80;99.90
19622;DHT22;9958;33.196;-97.114;2023-04-25T06:49:26;17.80;99.90
19622;DHT22;9958;33.196;-97.114;2023-04-25T06:51:56;17.70;99.90
19622;DHT22;9958;33.196;-97.114;2023-04-25T06:54:24;17.80;99.90
19622;DHT22;9958;33.196;-97.114;2023-04-25T06:56:53;17.70;99.90
19622;DHT22;9958;33.196;-97.114;2023-04-25T06:59:21;17.80;99.90
19622;DHT22;9958;33.196;-97.114;2023-04-25T07:01:50;17.80;99.90
19622;DHT22;9958;33.196;-97.114;2023-04-25T07:04:18;17.70;99.90
19622;DHT22;9958;33.196;-97.114;2023-04-25T07:06:47;17.70;99.90
19622;DHT22;9958;33.196;-97.114;2023-04-25T07:09:17;17.70;99.90
19622;DHT22;9958;33.196;-97.114;2023-04-25T07:11:45;17.70;99.90
19622;DHT22;9958;33.196;-97.114;2023-04-25T07:14:14;17.70;99.90
19622;DHT22;9958;33.196;-97.114;2023-04-25T07:16:42;17.70;99.90
19622;DHT22;9958;33.196;-97.114;2023-04-25T07:19:11;17.70;99.90
19622;DHT22;9958;33.196;-97.114;2023-04-25T07:21:39;17.70;99.90
19622;DHT22;9958;33.196;-97.114;2023-04-25T07:24:07;17.70;99.90
19622;DHT22;9958;33.196;-97.114;2023-04-25T07:26:37;17.70;99.90
19622;DHT22;9958;33.196;-97.114;2023-04-25T07:29:06;17.70;99.90
19622;DHT22;9958;33.196;-97.114;2023-04-25T07:31:34;17.70;99.90
19622;DHT22;9958;33.196;-97.114;2023-04-25T07:34:02;17.70;99.90
19622;DHT22;9958;33.196;-97.114;2023-04-25T07:36:31;17.70;99.90
19622;DHT22;9958;33.196;-97.114;2023-04-25T07:39:00;17.70;99.90
19622;DHT22;9958;33.196;-97.114;2023-04-25T07:41:28;17.70;99.90
19622;DHT22;9958;33.196;-97.114;2023-04-25T07:43:58;17.70;99.90
19622;DHT22;9958;33.196;-97.114;2023-04-25T07:46:26;17.60;99.90
19622;DHT22;9958;33.196;-97.114;2023-04-25T07:48:55;17.60;99.90
19622;DHT22;9958;33.196;-97.114;2023-04-25T07:51:23;17.60;99.90
19622;DHT22;9958;33.196;-97.114;2023-04-25T07:53:52;17.60;99.90
19622;DHT22;9958;33.196;-97.114;2023-04-25T07:56:20;17.60;99.90
19622;DHT22;9958;33.196;-97.114;2023-04-25T07:58:48;17.60;99.90
19622;DHT22;9958;33.196;-97.114;2023-04-25T08:01:19;17.50;99.90
19622;DHT22;9958;33.196;-97.114;2023-04-25T08:03:48;17.50;99.90
19622;DHT22;9958;33.196;-97.114;2023-04-25T08:06:16;17.50;99.90
19622;DHT22;9958;33.196;-97.114;2023-04-25T08:08:45;17.60;99.90
19622;DHT22;9958;33.196;-97.114;2023-04-25T08:11:14;17.50;99.90
19622;DHT22;9958;33.196;-97.114;2023-04-25T08:13:42;17.50;99.90
19622;DHT22;9958;33.196;-97.114;2023-04-25T08:16:10;17.50;99.90
19622;DHT22;9958;33.196;-97.114;2023-04-25T08:18:40;17.50;99.90
19622;DHT22;9958;33.196;-97.114;2023-04-25T08:21:09;17.50;99.90
19622;DHT22;9958;33.196;-97.114;2023-04-25T08:23:37;17.40;99.90
19622;DHT22;9958;33.196;-97.114;2023-04-25T08:26:06;17.40;99.90
19622;DHT22;9958;33.196;-97.114;2023-04-25T08:28:34;17.40;99.90
19622;DHT22;9958;33.196;-97.114;2023-04-25T08:31:03;17.40;99.90
19622;DHT22;9958;33.196;-97.114;2023-04-25T08:33:31;17.40;99.90
19622;DHT22;9958;33.196;-97.114;2023-04-25T08:36:01;17.40;99.90
19622;DHT22;9958;33.196;-97.114;2023-04-25T08:38:30;17.50;99.90
19622;DHT22;9958;33.196;-97.114;2023-04-25T08:41:00;17.40;99.90
19622;DHT22;9958;33.196;-97.114;2023-04-25T08:43:29;17.50;99.90
19622;DHT22;9958;33.196;-97.114;2023-04-25T08:45:59;17.50;99.90
19622;DHT22;9958;33.196;-97.114;2023-04-25T08:48:28;17.40;99.90
19622;DHT22;9958;33.196;-97.114;2023-04-25T08:50:56;17.40;99.90
19622;DHT22;9958;33.196;-97.114;2023-04-25T08:53:29;17.40;99.90
19622;DHT22;9958;33.196;-97.114;2023-04-25T08:55:59;17.40;99.90
19622;DHT22;9958;33.196;-97.114;2023-04-25T08:58:28;17.30;99.90
19622;DHT22;9958;33.196;-97.114;2023-04-25T09:00:57;17.30;99.90
19622;DHT22;9958;33.196;-97.114;2023-04-25T09:03:26;17.30;99.90
19622;DHT22;9958;33.196;-97.114;2023-04-25T09:05:55;17.30;99.90
19622;DHT22;9958;33.196;-97.114;2023-04-25T09:08:24;17.20;99.90
19622;DHT22;9958;33.196;-97.114;2023-04-25T09:10:53;17.20;99.90
19622;DHT22;9958;33.196;-97.114;2023-04-25T09:13:26;17.20;99.90
19622;DHT22;9958;33.196;-97.114;2023-04-25T09:15:55;17.10;99.90
19622;DHT22;9958;33.196;-97.114;2023-04-25T09:18:24;17.10;99.90
19622;DHT22;9958;33.196;-97.114;2023-04-25T09:20:54;17.10;99.90
19622;DHT22;9958;33.196;-97.114;2023-04-25T09:23:23;17.10;99.90
19622;DHT22;9958;33.196;-97.114;2023-04-25T09:25:53;17.00;99.90
19622;DHT22;9958;33.196;-97.114;2023-04-25T09:28:25;17.00;99.90
19622;DHT22;9958;33.196;-97.114;2023-04-25T09:30:55;17.00;99.90
19622;DHT22;9958;33.196;-97.114;2023-04-25T09:33:28;17.00;99.90
19622;DHT22;9958;33.196;-97.114;2023-04-25T09:36:03;17.00;99.90
19622;DHT22;9958;33.196;-97.114;2023-04-25T09:38:32;17.00;99.90
19622;DHT22;9958;33.196;-97.114;2023-04-25T09:41:02;17.00;99.90
19622;DHT22;9958;33.196;-97.114;2023-04-25T09:43:31;17.00;99.90
19622;DHT22;9958;33.196;-97.114;2023-04-25T09:45:59;17.00;99.90
19622;DHT22;9958;33.196;-97.114;2023-04-25T09:48:28;16.90;99.90
19622;DHT22;9958;33.196;-97.114;2023-04-25T09:51:07;16.90;99.90
19622;DHT22;9958;33.196;-97.114;2023-04-25T09:53:36;16.80;99.90
19622;DHT22;9958;33.196;-97.114;2023-04-25T09:56:07;16.80;99.90
19622;DHT22;9958;33.196;-97.114;2023-04-25T09:58:37;16.80;99.90
19622;DHT22;9958;33.196;-97.114;2023-04-25T10:01:06;16.80;99.90
19622;DHT22;9958;33.196;-97.114;2023-04-25T10:03:35;16.70;99.90
19622;DHT22;9958;33.196;-97.114;2023-04-25T10:06:08;16.70;99.90
19622;DHT22;9958;33.196;-97.114;2023-04-25T10:08:37;16.70;99.90
19622;DHT22;9958;33.196;-97.114;2023-04-25T10:11:09;16.60;99.90
19622;DHT22;9958;33.196;-97.114;2023-04-25T10:13:37;16.50;99.90
19622;DHT22;9958;33.196;-97.114;2023-04-25T10:16:06;16.50;99.90
19622;DHT22;9958;33.196;-97.114;2023-04-25T10:18:34;16.50;99.90
19622;DHT22;9958;33.196;-97.114;2023-04-25T10:21:04;16.50;99.90
19622;DHT22;9958;33.196;-97.114;2023-04-25T10:23:34;16.40;99.90
19622;DHT22;9958;33.196;-97.114;2023-04-25T10:26:02;16.40;99.90
19622;DHT22;9958;33.196;-97.114;2023-04-25T10:28:55;16.40;99.90
19622;DHT22;9958;33.196;-97.114;2023-04-25T10:31:23;16.30;99.90
19622;DHT22;9958;33.196;-97.114;2023-04-25T10:33:52;16.40;99.90
19622;DHT22;9958;33.196;-97.114;2023-04-25T10:36:22;16.40;99.90
19622;DHT22;9958;33.196;-97.114;2023-04-25T10:38:51;16.30;99.90
19622;DHT22;9958;33.196;-97.114;2023-04-25T10:41:21;16.30;99.90
19622;DHT22;9958;33.196;-97.114;2023-04-25T10:44:00;16.30;99.90
19622;DHT22;9958;33.196;-97.114;2023-04-25T10:46:29;16.30;99.90
19622;DHT22;9958;33.196;-97.114;2023-04-25T10:48:58;16.30;99.90
19622;DHT22;9958;33.196;-97.114;2023-04-25T10:51:28;16.30;99.90
19622;DHT22;9958;33.196;-97.114;2023-04-25T10:53:58;16.30;99.90
19622;DHT22;9958;33.196;-97.114;2023-04-25T10:56:27;16.20;99.90
19622;DHT22;9958;33.196;-97.114;2023-04-25T10:59:11;16.20;99.90
19622;DHT22;9958;33.196;-97.114;2023-04-25T11:01:40;16.20;99.90
19622;DHT22;9958;33.196;-97.114;2023-04-25T11:04:23;16.20;99.90
19622;DHT22;9958;33.196;-97.114;2023-04-25T11:07:02;16.20;99.90
19622;DHT22;9958;33.196;-97.114;2023-04-25T11:09:33;16.20;99.90
19622;DHT22;9958;33.196;-97.114;2023-04-25T11:12:02;16.20;99.90
19622;DHT22;9958;33.196;-97.114;2023-04-25T11:14:32;16.20;99.90
19622;DHT22;9958;33.196;-97.114;2023-04-25T11:17:00;16.20;99.90
19622;DHT22;9958;33.196;-97.114;2023-04-25T11:19:29;16.10;99.90
19622;DHT22;9958;33.196;-97.114;2023-04-25T11:21:57;16.20;99.90
19622;DHT22;9958;33.196;-97.114;2023-04-25T11:24:27;16.10;99.90
19622;DHT22;9958;33.196;-97.114;2023-04-25T11:26:56;16.10;99.90
19622;DHT22;9958;33.196;-97.114;2023-04-25T11:29:26;16.10;99.90
19622;DHT22;9958;33.196;-97.114;2023-04-25T11:31:56;16.10;99.90
19622;DHT22;9958;33.196;-97.114;2023-04-25T11:34:26;16.10;99.90
19622;DHT22;9958;33.196;-97.114;2023-04-25T11:36:57;16.00;99.90
19622;DHT22;9958;33.196;-97.114;2023-04-25T11:39:26;16.00;99.90
19622;DHT22;9958;33.196;-97.114;2023-04-25T11:41:55;16.00;99.90
19622;DHT22;9958;33.196;-97.114;2023-04-25T11:44:23;16.00;99.90
19622;DHT22;9958;33.196;-97.114;2023-04-25T11:46:51;16.00;99.90
19622;DHT22;9958;33.196;-97.114;2023-04-25T11:49:21;16.00;99.90
19622;DHT22;9958;33.196;-97.114;2023-04-25T11:51:51;15.90;99.90
19622;DHT22;9958;33.196;-97.114;2023-04-25T11:54:19;15.90;99.90
19622;DHT22;9958;33.196;-97.114;2023-04-25T11:56:47;15.90;99.90
19622;DHT22;9958;33.196;-97.114;2023-04-25T11:59:16;15.90;99.90
19622;DHT22;9958;33.196;-97.114;2023-04-25T12:01:48;15.90;99.90
19622;DHT22;9958;33.196;-97.114;2023-04-25T12:04:18;15.90;99.90
19622;DHT22;9958;33.196;-97.114;2023-04-25T12:06:49;15.90;99.90
19622;DHT22;9958;33.196;-97.114;2023-04-25T12:09:19;15.90;99.90
19622;DHT22;9958;33.196;-97.114;2023-04-25T12:11:52;15.90;99.90
19622;DHT22;9958;33.196;-97.114;2023-04-25T12:14:24;15.90;99.90
19622;DHT22;9958;33.196;-97.114;2023-04-25T12:16:55;15.80;99.90
19622;DHT22;9958;33.196;-97.114;2023-04-25T12:19:24;15.80;99.90
19622;DHT22;9958;33.196;-97.114;2023-04-25T12:21:54;15.80;99.90
19622;DHT22;9958;33.196;-97.114;2023-04-25T12:24:24;15.80;99.90
19622;DHT22;9958;33.196;-97.114;2023-04-25T12:26:58;15.80;99.90
19622;DHT22;9958;33.196;-97.114;2023-04-25T12:29:28;15.80;99.90
19622;DHT22;9958;33.196;-97.114;2023-04-25T12:31:57;15.80;99.90
19622;DHT22;9958;33.196;-97.114;2023-04-25T12:34:26;15.70;99.90
19622;DHT22;9958;33.196;-97.114;2023-04-25T12:36:56;15.70;99.90
19622;DHT22;9958;33.196;-97.114;2023-04-25T12:39:25;15.70;99.90
19622;DHT22;9958;33.196;-97.114;2023-04-25T12:41:54;15.70;99.90
19622;DHT22;9958;33.196;-97.114;2023-04-25T12:44:22;15.60;99.90
19622;DHT22;9958;33.196;-97.114;2023-04-25T12:46:51;15.60;99.90
19622;DHT22;9958;33.196;-97.114;2023-04-25T12:49:19;15.60;99.90
19622;DHT22;9958;33.196;-97.114;2023-04-25T12:51:47;15.50;99.90
19622;DHT22;9958;33.196;-97.114;2023-04-25T12:54:17;15.50;99.90
19622;DHT22;9958;33.196;-97.114;2023-04-25T12:56:46;15.40;99.90
19622;DHT22;9958;33.196;-97.114;2023-04-25T12:59:14;15.50;99.90
19622;DHT22;9958;33.196;-97.114;2023-04-25T13:01:42;15.40;99.90
19622;DHT22;9958;33.196;-97.114;2023-04-25T13:04:11;15.40;99.90
19622;DHT22;9958;33.196;-97.114;2023-04-25T13:06:40;15.50;99.90
19622;DHT22;9958;33.196;-97.114;2023-04-25T13:09:08;15.50;99.90
19622;DHT22;9958;33.196;-97.114;2023-04-25T13:11:40;15.50;99.90
19622;DHT22;9958;33.196;-97.114;2023-04-25T13:14:08;15.40;99.90
19622;DHT22;9958;33.196;-97.114;2023-04-25T13:16:36;15.50;99.90
19622;DHT22;9958;33.196;-97.114;2023-04-25T13:19:05;15.50;99.90
19622;DHT22;9958;33.196;-97.114;2023-04-25T13:21:34;15.50;99.90
19622;DHT22;9958;33.196;-97.114;2023-04-25T13:24:03;15.50;99.90
19622;DHT22;9958;33.196;-97.114;2023-04-25T13:26:31;15.50;99.90
19622;DHT22;9958;33.196;-97.114;2023-04-25T13:29:01;15.50;99.90
19622;DHT22;9958;33.196;-97.114;2023-04-25T13:31:30;15.50;99.90
19622;DHT22;9958;33.196;-97.114;2023-04-25T13:33:58;15.50;99.90
19622;DHT22;9958;33.196;-97.114;2023-04-25T13:36:27;15.50;99.90
19622;DHT22;9958;33.196;-97.114;2023-04-25T13:38:55;15.60;99.90
19622;DHT22;9958;33.196;-97.114;2023-04-25T13:41:23;15.60;99.90
19622;DHT22;9958;33.196;-97.114;2023-04-25T13:43:52;15.60;99.90
19622;DHT22;9958;33.196;-97.114;2023-04-25T13:46:22;15.60;99.90
19622;DHT22;9958;33.196;-97.114;2023-04-25T13:48:50;15.70;99.90
19622;DHT22;9958;33.196;-97.114;2023-04-25T13:51:18;15.70;99.90
19622;DHT22;9958;33.196;-97.114;2023-04-25T13:53:47;15.70;99.90
19622;DHT22;9958;33.196;-97.114;2023-04-25T13:56:15;15.70;99.90
19622;DHT22;9958;33.196;-97.114;2023-04-25T13:58:45;15.70;99.90
19622;DHT22;9958;33.196;-97.114;2023-04-25T14:01:14;15.70;99.90
19622;DHT22;9958;33.196;-97.114;2023-04-25T14:03:44;15.70;99.90
19622;DHT22;9958;33.196;-97.114;2023-04-25T14:06:12;15.80;99.90
19622;DHT22;9958;33.196;-97.114;2023-04-25T14:08:47;15.80;99.90
19622;DHT22;9958;33.196;-97.114;2023-04-25T14:11:15;15.80;99.90
19622;DHT22;9958;33.196;-97.114;2023-04-25T14:13:45;15.90;99.90
19622;DHT22;9958;33.196;-97.114;2023-04-25T14:16:13;15.90;99.90
19622;DHT22;9958;33.196;-97.114;2023-04-25T14:18:43;16.00;99.90
19622;DHT22;9958;33.196;-97.114;2023-04-25T14:21:12;16.00;99.90
19622;DHT22;9958;33.196;-97.114;2023-04-25T14:23:40;16.10;99.90
19622;DHT22;9958;33.196;-97.114;2023-04-25T14:26:08;16.10;99.90
19622;DHT22;9958;33.196;-97.114;2023-04-25T14:28:38;16.20;99.90
19622;DHT22;9958;33.196;-97.114;2023-04-25T14:31:07;16.30;99.90
19622;DHT22;9958;33.196;-97.114;2023-04-25T14:33:35;16.30;99.90
19622;DHT22;9958;33.196;-97.114;2023-04-25T14:36:09;16.40;99.90
19622;DHT22;9958;33.196;-97.114;2023-04-25T14:38:38;16.50;99.90
19622;DHT22;9958;33.196;-97.114;2023-04-25T14:41:06;16.60;99.90
19622;DHT22;9958;33.196;-97.114;2023-04-25T14:43:34;16.80;99.90
19622;DHT22;9958;33.196;-97.114;2023-04-25T14:46:03;16.90;99.90
19622;DHT22;9958;33.196;-97.114;2023-04-25T14:48:31;17.00;99.90
19622;DHT22;9958;33.196;-97.114;2023-04-25T14:51:00;17.20;99.90
19622;DHT22;9958;33.196;-97.114;2023-04-25T14:53:30;17.50;99.90
19622;DHT22;9958;33.196;-97.114;2023-04-25T14:55:58;17.70;99.90
19622;DHT22;9958;33.196;-97.114;2023-04-25T14:58:27;17.80;99.90
19622;DHT22;9958;33.196;-97.114;2023-04-25T15:00:55;17.90;99.90
19622;DHT22;9958;33.196;-97.114;2023-04-25T15:03:24;18.00;99.90
19622;DHT22;9958;33.196;-97.114;2023-04-25T15:05:53;18.10;99.90
19622;DHT22;9958;33.196;-97.114;2023-04-25T15:08:22;18.10;99.90
19622;DHT22;9958;33.196;-97.114;2023-04-25T15:10:52;18.10;99.90
19622;DHT22;9958;33.196;-97.114;2023-04-25T15:13:21;18.10;99.90
19622;DHT22;9958;33.196;-97.114;2023-04-25T15:15:49;18.10;99.90
19622;DHT22;9958;33.196;-97.114;2023-04-25T15:18:21;18.20;99.90
19622;DHT22;9958;33.196;-97.114;2023-04-25T15:20:50;18.20;99.90
19622;DHT22;9958;33.196;-97.114;2023-04-25T15:23:20;18.30;99.90
19622;DHT22;9958;33.196;-97.114;2023-04-25T15:25:51;18.30;99.90